Time;durP1;ratioP1;P1;durP2;ratioP2;P2;SDS_P1;SDS_P2;PMS_P1;PMS_P2;Temp;Humidity;BMP_temperature;BMP_pressure;BME280_temperature;BME280_humidity;BME280_pressure;Samples;Min_cycle;Max_cycle;Signal;HPM_P1;HPM_P2
2022/07/31 00:01:22;;;;;;;2.33;1.73;;;21.90;78.40;;;;;;10633840;27;20392;-61
2022/07/31 00:06:23;;;;;;;4.63;1.80;;;21.90;78.40;;;;;;10625930;27;20041;-62
2022/07/31 00:11:23;;;;;;;2.72;2.10;;;21.90;78.50;;;;;;10631353;27;20023;-61
2022/07/31 00:16:25;;;;;;;2.75;1.83;;;21.80;78.40;;;;;;10627605;27;20049;-61
2022/07/31 00:21:25;;;;;;;3.22;1.90;;;21.80;78.40;;;;;;10638025;27;20026;-62
2022/07/31 00:26:26;;;;;;;2.67;1.70;;;21.80;78.50;;;;;;10651353;27;20108;-61
2022/07/31 00:31:27;;;;;;;2.42;2.05;;;21.80;79.10;;;;;;10639668;27;20027;-62
2022/07/31 00:36:27;;;;;;;4.45;2.03;;;21.80;78.50;;;;;;10625250;27;20023;-62
2022/07/31 00:41:39;;;;;;;2.28;1.80;;;21.80;78.50;;;;;;10631464;27;20560;-61
2022/07/31 00:46:41;;;;;;;2.20;2.00;;;21.70;78.50;;;;;;10634937;27;20043;-61
2022/07/31 00:51:42;;;;;;;4.13;2.20;;;21.70;78.60;;;;;;10643182;27;20143;-61
2022/07/31 00:56:42;;;;;;;3.00;2.13;;;21.70;78.60;;;;;;10629979;27;20203;-61
2022/07/31 01:01:43;;;;;;;3.47;2.30;;;21.70;78.60;;;;;;10652751;27;20156;-61
2022/07/31 01:06:44;;;;;;;2.42;2.10;;;21.70;78.60;;;;;;10633790;27;20015;-61
2022/07/31 01:11:49;;;;;;;1.98;1.75;;;21.70;78.60;;;;;;10630040;27;20073;-61
2022/07/31 01:16:52;;;;;;;2.72;1.90;;;21.60;78.50;;;;;;10640078;27;20038;-62
2022/07/31 01:22:31;;;;;;;1.88;1.60;;;21.60;78.50;;;;;;10636481;27;20026;-61
2022/07/31 01:28:00;;;;;;;2.50;2.20;;;21.60;78.50;;;;;;10639513;27;20029;-61
2022/07/31 01:33:09;;;;;;;2.30;2.08;;;21.60;78.50;;;;;;10633217;27;20030;-62
2022/07/31 01:38:19;;;;;;;4.05;2.10;;;21.60;78.50;;;;;;10638004;27;20043;-61
2022/07/31 01:43:31;;;;;;;2.17;1.98;;;21.60;78.50;;;;;;10627619;27;20037;-62
2022/07/31 01:48:32;;;;;;;2.42;2.20;;;21.60;78.60;;;;;;10630714;27;21046;-62
2022/07/31 01:53:35;;;;;;;2.80;2.03;;;21.50;78.50;;;;;;10625741;27;20027;-62
2022/07/31 01:58:40;;;;;;;2.75;2.28;;;21.50;78.60;;;;;;10633395;27;20505;-61
2022/07/31 02:03:43;;;;;;;3.20;2.20;;;21.50;78.70;;;;;;10622800;27;20021;-61
2022/07/31 02:08:46;;;;;;;2.20;1.88;;;21.50;78.70;;;;;;10625994;27;20031;-61
2022/07/31 02:13:48;;;;;;;2.13;1.92;;;21.50;78.70;;;;;;10636594;27;20047;-62
2022/07/31 02:18:51;;;;;;;2.35;1.92;;;21.50;78.70;;;;;;10632374;27;20019;-62
2022/07/31 02:23:52;;;;;;;2.25;2.05;;;21.40;78.70;;;;;;10637467;27;20031;-62
2022/07/31 02:28:54;;;;;;;2.60;2.20;;;21.40;78.70;;;;;;10647738;27;20032;-61
2022/07/31 02:33:54;;;;;;;3.75;2.30;;;21.40;78.80;;;;;;10644786;27;20405;-62
2022/07/31 02:38:57;;;;;;;3.35;2.47;;;21.40;78.90;;;;;;10639200;27;20075;-61
2022/07/31 02:43:58;;;;;;;2.85;2.10;;;21.40;78.90;;;;;;10631437;27;20039;-61
2022/07/31 02:48:59;;;;;;;2.60;2.05;;;21.30;78.90;;;;;;10640148;27;20023;-61
2022/07/31 02:54:00;;;;;;;2.63;2.03;;;21.30;79.00;;;;;;10644741;27;20035;-61
2022/07/31 02:59:01;;;;;;;2.33;2.13;;;21.30;79.00;;;;;;10639480;27;20023;-61
2022/07/31 03:04:02;;;;;;;3.78;2.45;;;21.30;79.00;;;;;;10609382;27;20421;-62
2022/07/31 03:09:03;;;;;;;2.40;1.92;;;21.30;79.20;;;;;;10636366;27;20022;-61
2022/07/31 03:14:06;;;;;;;2.47;2.15;;;21.30;79.20;;;;;;10660338;27;20035;-61
2022/07/31 03:19:08;;;;;;;2.65;2.45;;;21.30;79.30;;;;;;10644060;27;20050;-61
2022/07/31 03:24:10;;;;;;;3.63;2.53;;;21.30;79.30;;;;;;10652013;27;20169;-61
2022/07/31 03:29:11;;;;;;;2.95;2.40;;;21.20;79.30;;;;;;10634917;27;20030;-61
2022/07/31 03:34:12;;;;;;;3.65;2.10;;;21.20;79.30;;;;;;10638454;27;20401;-61
2022/07/31 03:39:14;;;;;;;3.83;2.38;;;21.20;79.30;;;;;;10650241;27;20126;-61
2022/07/31 03:44:15;;;;;;;3.03;2.30;;;21.20;79.40;;;;;;10636000;27;20038;-61
2022/07/31 03:49:16;;;;;;;3.00;2.25;;;21.20;79.40;;;;;;10641250;27;20394;-62
2022/07/31 03:54:17;;;;;;;2.60;2.40;;;21.20;79.50;;;;;;10625785;27;20080;-61
2022/07/31 03:59:19;;;;;;;3.40;2.50;;;21.20;79.50;;;;;;10642557;27;20067;-62
2022/07/31 04:04:19;;;;;;;3.85;2.35;;;21.10;79.50;;;;;;10642234;27;20030;-61
2022/07/31 04:09:20;;;;;;;2.58;2.38;;;21.10;79.50;;;;;;10622904;27;20019;-61
2022/07/31 04:14:22;;;;;;;2.63;2.30;;;21.10;79.60;;;;;;10634157;27;20045;-62
2022/07/31 04:19:22;;;;;;;4.32;2.65;;;21.10;79.60;;;;;;10621871;27;20027;-61
2022/07/31 04:24:24;;;;;;;3.08;2.72;;;21.10;79.70;;;;;;10641120;27;20030;-61
2022/07/31 04:29:27;;;;;;;2.90;2.30;;;21.10;79.70;;;;;;10616380;27;20469;-61
2022/07/31 04:34:28;;;;;;;3.10;2.63;;;21.10;79.70;;;;;;10617568;27;20062;-61
2022/07/31 04:39:29;;;;;;;3.08;2.40;;;21.10;79.70;;;;;;10555275;27;20170;-61
2022/07/31 04:44:30;;;;;;;2.60;2.25;;;21.00;79.70;;;;;;10532902;27;20113;-61
2022/07/31 04:49:32;;;;;;;3.80;2.05;;;21.10;79.80;;;;;;10527710;27;20019;-61
2022/07/31 04:54:32;;;;;;;3.58;2.58;;;21.10;79.80;;;;;;10530373;27;20149;-61
2022/07/31 04:59:33;;;;;;;4.43;2.42;;;21.10;79.80;;;;;;10514640;27;20560;-61
2022/07/31 05:04:34;;;;;;;3.88;2.33;;;21.00;79.80;;;;;;10521709;27;20031;-61
2022/07/31 05:09:35;;;;;;;2.63;2.22;;;21.00;79.80;;;;;;10533538;27;20019;-61
2022/07/31 05:14:35;;;;;;;3.05;2.20;;;21.00;80.40;;;;;;10528154;27;20060;-62
2022/07/31 05:19:36;;;;;;;3.33;2.50;;;21.00;79.80;;;;;;10522850;27;20578;-61
2022/07/31 05:24:37;;;;;;;2.97;2.60;;;21.00;79.90;;;;;;10533944;27;20460;-62
2022/07/31 05:29:38;;;;;;;3.55;2.65;;;21.00;79.80;;;;;;10543080;27;20263;-61
2022/07/31 05:34:39;;;;;;;3.25;2.55;;;20.70;79.70;;;;;;10540645;27;20662;-62
2022/07/31 05:39:39;;;;;;;3.53;2.45;;;21.00;79.90;;;;;;10535207;27;20043;-62
2022/07/31 05:44:40;;;;;;;2.65;2.40;;;21.00;79.90;;;;;;10537149;27;20079;-62
2022/07/31 05:49:41;;;;;;;3.88;2.58;;;21.00;79.90;;;;;;10550939;27;20020;-61
2022/07/31 05:54:44;;;;;;;2.78;2.50;;;21.00;80.00;;;;;;10542285;27;20485;-60
2022/07/31 05:59:45;;;;;;;3.67;2.72;;;21.00;80.00;;;;;;10547975;27;20027;-60
2022/07/31 06:04:46;;;;;;;3.00;2.70;;;21.00;80.00;;;;;;10552638;27;20282;-61
2022/07/31 06:09:47;;;;;;;4.50;2.63;;;21.00;80.00;;;;;;10543319;27;20109;-61
2022/07/31 06:14:49;;;;;;;2.88;2.42;;;21.00;80.00;;;;;;10541251;27;20575;-60
2022/07/31 06:19:49;;;;;;;3.15;2.50;;;21.00;80.10;;;;;;10526385;27;20677;-61
2022/07/31 06:24:50;;;;;;;2.35;2.13;;;21.00;80.10;;;;;;10533711;27;20038;-61
2022/07/31 06:29:50;;;;;;;3.38;3.08;;;21.10;80.20;;;;;;10543409;27;20108;-62
2022/07/31 06:34:51;;;;;;;2.88;2.63;;;21.10;80.20;;;;;;10533687;27;20270;-61
2022/07/31 06:39:53;;;;;;;3.25;2.70;;;21.10;80.20;;;;;;10534259;27;20634;-61
2022/07/31 06:44:54;;;;;;;2.38;2.17;;;21.10;80.20;;;;;;10529129;27;20022;-61
2022/07/31 06:49:54;;;;;;;2.38;2.17;;;21.10;80.10;;;;;;10534606;27;20499;-61
2022/07/31 06:54:55;;;;;;;3.90;2.63;;;21.20;80.20;;;;;;10548194;27;20048;-61
2022/07/31 06:59:57;;;;;;;2.80;2.50;;;21.20;80.20;;;;;;10541969;27;20646;-60
2022/07/31 07:04:58;;;;;;;2.67;2.47;;;21.20;80.20;;;;;;10533391;27;20030;-60
2022/07/31 07:09:58;;;;;;;3.33;2.42;;;21.20;80.10;;;;;;10553274;27;20425;-60
2022/07/31 07:14:59;;;;;;;2.97;2.10;;;21.20;80.10;;;;;;10571799;27;20569;-60
2022/07/31 07:20:00;;;;;;;3.45;2.58;;;21.20;80.10;;;;;;10547822;27;20039;-60
2022/07/31 07:25:01;;;;;;;3.65;2.17;;;21.20;80.10;;;;;;10537103;27;20584;-60
2022/07/31 07:30:02;;;;;;;3.20;2.90;;;21.20;80.10;;;;;;10525758;27;20030;-61
2022/07/31 07:35:03;;;;;;;2.72;2.47;;;21.20;80.10;;;;;;10542516;27;20030;-61
2022/07/31 07:40:04;;;;;;;2.78;2.30;;;21.20;80.20;;;;;;10548531;27;20150;-60
2022/07/31 07:45:06;;;;;;;2.65;2.45;;;21.30;80.20;;;;;;10556882;27;20263;-60
2022/07/31 07:50:07;;;;;;;2.95;2.55;;;21.30;80.20;;;;;;10559818;27;20030;-60
2022/07/31 07:55:08;;;;;;;3.08;2.30;;;21.30;80.30;;;;;;10543565;27;20043;-60
2022/07/31 08:00:10;;;;;;;3.38;2.40;;;21.30;80.80;;;;;;10550643;27;20018;-61
2022/07/31 08:05:11;;;;;;;2.53;2.30;;;21.30;80.10;;;;;;10559305;27;20035;-61
2022/07/31 08:10:17;;;;;;;3.20;2.50;;;21.40;80.20;;;;;;10543199;27;20019;-61
2022/07/31 08:15:18;;;;;;;3.60;2.30;;;21.40;80.30;;;;;;10544231;27;20039;-61
2022/07/31 08:20:19;;;;;;;4.43;2.58;;;21.40;80.40;;;;;;10544549;27;20054;-61
2022/07/31 08:25:19;;;;;;;3.25;2.38;;;21.40;80.50;;;;;;10547794;27;20077;-61
2022/07/31 08:30:20;;;;;;;4.13;2.88;;;21.40;80.50;;;;;;10544422;27;20026;-61
2022/07/31 08:35:21;;;;;;;4.20;2.72;;;21.40;80.60;;;;;;10539775;27;20042;-61
2022/07/31 08:40:23;;;;;;;3.78;2.47;;;21.40;80.70;;;;;;10535107;27;20054;-61
2022/07/31 08:45:23;;;;;;;2.95;2.30;;;21.30;80.70;;;;;;10532872;27;20338;-61
2022/07/31 08:50:25;;;;;;;2.50;2.30;;;21.30;80.90;;;;;;10529976;27;20820;-61
2022/07/31 08:55:26;;;;;;;3.08;2.38;;;21.30;80.90;;;;;;10539159;27;20043;-62
2022/07/31 09:00:27;;;;;;;2.60;2.00;;;21.30;80.90;;;;;;10540536;27;20035;-62
2022/07/31 09:05:28;;;;;;;2.33;2.05;;;21.30;81.10;;;;;;10549956;27;20758;-61
2022/07/31 09:10:29;;;;;;;2.97;2.38;;;21.30;81.20;;;;;;10542367;27;20018;-59
2022/07/31 09:15:30;;;;;;;3.70;2.50;;;21.30;81.20;;;;;;10531737;27;20119;-61
2022/07/31 09:20:31;;;;;;;3.28;2.40;;;21.30;81.50;;;;;;10540859;27;20781;-61
2022/07/31 09:25:32;;;;;;;2.50;2.30;;;21.30;81.80;;;;;;10545892;27;20023;-64
2022/07/31 09:30:33;;;;;;;3.50;2.42;;;21.20;81.90;;;;;;10532468;27;20835;-59
2022/07/31 09:35:38;;;;;;;5.22;3.45;;;21.30;82.00;;;;;;10553622;27;20275;-60
2022/07/31 09:40:42;;;;;;;4.88;2.80;;;21.30;82.40;;;;;;10524087;27;20166;-59
2022/07/31 09:45:45;;;;;;;3.95;2.40;;;21.30;82.60;;;;;;10531840;27;20034;-61
2022/07/31 09:50:55;;;;;;;3.13;2.50;;;21.30;82.70;;;;;;10535882;27;20899;-61
2022/07/31 09:55:56;;;;;;;3.78;2.47;;;21.40;82.80;;;;;;10529421;27;20047;-62
2022/07/31 10:00:57;;;;;;;4.03;2.17;;;21.40;82.70;;;;;;10545528;27;20443;-62
2022/07/31 10:05:58;;;;;;;3.03;2.53;;;21.40;82.80;;;;;;10547520;27;20027;-62
2022/07/31 10:11:01;;;;;;;2.80;2.42;;;21.40;82.90;;;;;;10535438;27;20418;-62
2022/07/31 10:16:03;;;;;;;3.25;2.80;;;21.40;83.10;;;;;;10540958;27;20426;-62
2022/07/31 10:21:05;;;;;;;2.65;2.45;;;21.40;83.30;;;;;;10534392;27;20049;-62
2022/07/31 10:26:06;;;;;;;3.38;2.55;;;21.40;83.50;;;;;;10537349;27;20021;-62
2022/07/31 10:31:11;;;;;;;3.67;2.53;;;21.40;83.70;;;;;;10535162;27;20488;-61
2022/07/31 10:36:20;;;;;;;3.67;2.83;;;21.40;84.00;;;;;;10534461;27;20047;-62
2022/07/31 10:41:20;;;;;;;6.50;3.42;;;21.40;84.50;;;;;;10535868;27;20828;-62
2022/07/31 10:46:32;;;;;;;3.83;3.00;;;21.40;84.60;;;;;;10535164;27;20516;-62
2022/07/31 10:51:33;;;;;;;3.75;2.67;;;21.40;85.30;;;;;;10550800;27;20030;-62
2022/07/31 10:56:45;;;;;;;5.32;2.58;;;21.40;85.10;;;;;;10549503;27;20489;-62
2022/07/31 11:01:50;;;;;;;3.83;2.80;;;21.40;85.50;;;;;;10560347;27;20033;-62
2022/07/31 11:06:51;;;;;;;5.00;3.50;;;21.40;85.70;;;;;;10560164;27;20594;-62
2022/07/31 11:11:52;;;;;;;5.60;2.65;;;21.40;85.80;;;;;;10550647;27;20198;-62
2022/07/31 11:16:54;;;;;;;4.38;2.97;;;21.30;85.80;;;;;;10558619;27;20400;-61
2022/07/31 11:21:56;;;;;;;5.13;2.70;;;21.40;86.00;;;;;;10556524;27;20155;-62
2022/07/31 11:26:57;;;;;;;3.67;2.60;;;21.30;86.10;;;;;;10557960;27;20239;-61
2022/07/31 11:31:59;;;;;;;4.28;2.40;;;21.40;86.20;;;;;;10556847;27;20030;-62
2022/07/31 11:37:00;;;;;;;5.10;3.50;;;21.30;86.30;;;;;;10538348;27;20483;-62
2022/07/31 11:42:04;;;;;;;5.20;3.75;;;21.70;86.80;;;;;;10531626;27;20061;-61
2022/07/31 11:47:05;;;;;;;4.68;3.58;;;21.30;87.10;;;;;;10550237;27;20238;-62
2022/07/31 11:52:08;;;;;;;5.38;3.15;;;21.40;87.20;;;;;;10543950;27;20471;-61
2022/07/31 11:57:10;;;;;;;5.78;3.63;;;21.40;87.40;;;;;;10543360;27;20530;-62
2022/07/31 12:02:11;;;;;;;7.75;4.57;;;21.40;87.70;;;;;;10540805;27;20098;-62
2022/07/31 12:07:13;;;;;;;7.82;4.85;;;21.40;88.20;;;;;;10540902;27;20030;-62
2022/07/31 12:12:14;;;;;;;5.97;3.80;;;21.40;88.70;;;;;;10535103;27;20045;-62
2022/07/31 12:17:21;;;;;;;4.32;3.47;;;21.40;88.90;;;;;;10532385;27;20019;-62
2022/07/31 12:22:22;;;;;;;6.37;4.07;;;21.30;89.50;;;;;;10550968;27;20379;-62
2022/07/31 12:27:22;;;;;;;8.35;4.50;;;21.30;89.50;;;;;;10545316;27;20279;-62
2022/07/31 12:32:27;;;;;;;7.13;4.80;;;21.30;89.90;;;;;;10540941;27;20406;-63
2022/07/31 12:37:28;;;;;;;7.28;4.38;;;21.30;90.10;;;;;;10539653;27;20309;-62
2022/07/31 12:42:34;;;;;;;8.55;4.80;;;21.30;90.20;;;;;;10533869;27;20035;-62
2022/07/31 12:47:34;;;;;;;6.65;4.55;;;21.30;90.70;;;;;;10543544;27;20031;-62
2022/07/31 12:52:36;;;;;;;7.10;4.72;;;21.30;90.50;;;;;;10551571;27;20450;-62
2022/07/31 12:57:37;;;;;;;6.75;4.68;;;21.30;90.50;;;;;;10539271;27;20031;-62
2022/07/31 13:02:37;;;;;;;8.35;5.00;;;21.50;90.70;;;;;;10539629;27;20448;-61
2022/07/31 13:07:38;;;;;;;8.02;5.28;;;21.30;90.80;;;;;;10544957;27;20977;-61
2022/07/31 13:12:39;;;;;;;6.55;4.80;;;21.30;91.00;;;;;;10552776;27;20960;-61
2022/07/31 13:17:39;;;;;;;6.70;4.80;;;21.30;91.20;;;;;;10542436;27;20515;-60
2022/07/31 13:22:40;;;;;;;7.80;4.82;;;21.30;91.20;;;;;;10554346;27;20652;-60
2022/07/31 13:27:42;;;;;;;7.68;4.95;;;21.30;91.20;;;;;;10551412;27;20019;-61
2022/07/31 13:32:42;;;;;;;6.95;4.72;;;21.20;91.30;;;;;;10559438;27;20031;-61
2022/07/31 13:37:45;;;;;;;6.75;4.25;;;21.30;91.40;;;;;;10541870;27;20043;-61
2022/07/31 13:42:45;;;;;;;6.18;4.68;;;21.30;91.50;;;;;;10533160;27;20413;-60
2022/07/31 13:47:46;;;;;;;5.55;4.70;;;21.30;91.50;;;;;;10540745;27;20078;-60
2022/07/31 13:52:47;;;;;;;7.43;4.47;;;21.30;91.70;;;;;;10541935;27;20123;-60
2022/07/31 13:57:47;;;;;;;7.60;4.60;;;21.30;91.80;;;;;;10529434;27;20251;-62
2022/07/31 14:02:48;;;;;;;6.50;4.57;;;21.30;92.00;;;;;;10548171;27;20023;-61
2022/07/31 14:07:49;;;;;;;6.72;4.47;;;21.30;92.10;;;;;;10537362;27;20868;-61
2022/07/31 14:12:51;;;;;;;6.30;4.05;;;21.40;92.10;;;;;;10536227;27;20081;-60
2022/07/31 14:17:52;;;;;;;5.57;3.95;;;21.40;92.10;;;;;;10552771;27;20058;-61
2022/07/31 14:22:52;;;;;;;5.22;3.67;;;21.40;92.10;;;;;;10550493;27;20034;-61
2022/07/31 14:27:53;;;;;;;6.10;4.18;;;21.50;92.20;;;;;;10548978;27;20106;-60
2022/07/31 14:32:54;;;;;;;6.03;3.83;;;21.50;92.30;;;;;;10539783;27;20662;-61
2022/07/31 14:37:55;;;;;;;5.88;3.45;;;21.60;92.30;;;;;;10526205;27;20063;-61
2022/07/31 14:42:56;;;;;;;5.22;3.75;;;21.60;92.30;;;;;;10545566;27;20091;-61
2022/07/31 14:47:57;;;;;;;7.43;3.92;;;21.60;92.30;;;;;;10554251;27;20030;-61
2022/07/31 14:52:58;;;;;;;8.07;3.75;;;21.60;92.30;;;;;;10540511;27;20035;-61
2022/07/31 14:57:59;;;;;;;5.22;3.67;;;21.60;92.20;;;;;;10542511;27;20055;-62
2022/07/31 15:02:59;;;;;;;5.57;3.22;;;21.60;92.30;;;;;;10558760;27;20483;-62
2022/07/31 15:08:00;;;;;;;3.95;3.20;;;21.60;92.50;;;;;;10548458;27;20030;-61
2022/07/31 15:13:01;;;;;;;4.60;3.13;;;21.60;92.50;;;;;;10529605;27;20121;-60
2022/07/31 15:18:02;;;;;;;5.43;3.00;;;21.60;92.50;;;;;;10548898;27;20070;-62
2022/07/31 15:23:02;;;;;;;4.60;3.00;;;21.60;92.60;;;;;;10547008;27;20124;-61
2022/07/31 15:28:03;;;;;;;5.10;2.70;;;21.60;92.80;;;;;;10545017;27;20307;-62
2022/07/31 15:33:04;;;;;;;4.07;2.80;;;21.60;93.10;;;;;;10540338;27;20421;-63
2022/07/31 15:38:05;;;;;;;4.43;2.53;;;21.60;93.20;;;;;;10545239;27;20047;-62
2022/07/31 15:43:06;;;;;;;3.35;2.50;;;21.60;93.20;;;;;;10541643;27;20328;-61
2022/07/31 15:48:07;;;;;;;4.28;2.45;;;21.60;93.20;;;;;;10534216;27;20244;-62
2022/07/31 15:53:08;;;;;;;3.35;2.63;;;21.60;93.20;;;;;;10565406;27;20049;-63
2022/07/31 15:58:09;;;;;;;2.83;2.25;;;21.50;93.30;;;;;;10561371;27;20662;-62
2022/07/31 16:03:10;;;;;;;4.50;3.20;;;21.50;93.30;;;;;;10552614;27;20231;-62
2022/07/31 16:08:11;;;;;;;5.90;2.60;;;21.50;93.40;;;;;;10560898;27;20512;-64
2022/07/31 16:13:11;;;;;;;5.07;2.58;;;21.50;93.50;;;;;;10556865;27;20493;-63
2022/07/31 16:18:12;;;;;;;4.13;2.95;;;21.50;93.50;;;;;;10566334;27;20323;-64
2022/07/31 16:23:13;;;;;;;3.65;2.47;;;21.50;93.50;;;;;;10564088;27;20463;-58
2022/07/31 16:28:13;;;;;;;4.28;2.22;;;21.60;93.50;;;;;;10554758;27;20405;-59
2022/07/31 16:33:14;;;;;;;2.67;2.35;;;21.60;93.50;;;;;;10554790;27;20103;-63
2022/07/31 16:38:15;;;;;;;3.45;2.15;;;21.60;93.30;;;;;;10566781;27;20535;-58
2022/07/31 16:43:17;;;;;;;3.40;1.95;;;21.60;93.30;;;;;;10547005;27;20031;-64
2022/07/31 16:48:18;;;;;;;3.20;2.40;;;21.60;93.30;;;;;;10540363;27;20027;-63
2022/07/31 16:53:18;;;;;;;4.18;2.05;;;21.50;93.20;;;;;;10570699;27;20207;-64
2022/07/31 16:58:19;;;;;;;3.13;2.00;;;21.50;93.20;;;;;;10565335;27;20534;-67
2022/07/31 17:03:21;;;;;;;1.90;1.60;;;21.60;93.40;;;;;;10572463;27;20407;-64
2022/07/31 17:08:22;;;;;;;3.03;2.00;;;21.50;94.40;;;;;;10558295;27;20503;-64
2022/07/31 17:13:23;;;;;;;3.33;2.13;;;21.50;94.50;;;;;;10541365;27;20458;-63
2022/07/31 17:18:24;;;;;;;2.42;2.03;;;21.50;94.60;;;;;;10571546;27;20027;-64
2022/07/31 17:23:25;;;;;;;4.43;2.03;;;21.50;94.60;;;;;;10567228;27;20042;-64
2022/07/31 17:28:26;;;;;;;3.17;2.08;;;21.50;94.60;;;;;;10569334;27;20651;-64
2022/07/31 17:33:28;;;;;;;6.63;1.92;;;21.50;94.60;;;;;;10571557;27;20039;-65
2022/07/31 17:38:28;;;;;;;2.70;1.63;;;21.50;94.60;;;;;;10562842;27;20647;-64
2022/07/31 17:43:34;;;;;;;2.65;1.85;;;21.50;94.50;;;;;;10567445;27;20065;-65
2022/07/31 17:48:34;;;;;;;3.42;2.10;;;21.50;94.60;;;;;;10567870;27;20495;-65
2022/07/31 17:53:37;;;;;;;7.15;2.35;;;21.50;94.60;;;;;;10563071;27;20384;-66
2022/07/31 17:58:37;;;;;;;4.10;2.22;;;21.50;94.60;;;;;;10564277;27;20035;-58
2022/07/31 18:03:38;;;;;;;2.65;1.95;;;21.40;94.60;;;;;;10562644;27;20571;-61
2022/07/31 18:08:39;;;;;;;2.72;2.00;;;21.40;94.60;;;;;;10560483;27;20026;-60
2022/07/31 18:13:39;;;;;;;4.00;2.60;;;21.40;94.60;;;;;;10548661;27;20046;-60
2022/07/31 18:18:40;;;;;;;3.58;2.00;;;21.40;94.50;;;;;;10537732;27;20328;-64
2022/07/31 18:23:41;;;;;;;3.75;2.17;;;21.40;94.50;;;;;;10550388;27;20056;-64
2022/07/31 18:28:41;;;;;;;3.70;2.05;;;21.40;94.50;;;;;;10547252;27;20454;-64
2022/07/31 18:33:42;;;;;;;4.80;2.08;;;21.40;94.50;;;;;;10550594;27;20552;-63
2022/07/31 18:38:43;;;;;;;2.53;1.90;;;21.40;94.50;;;;;;10550196;27;20408;-61
2022/07/31 18:43:43;;;;;;;4.15;2.08;;;21.40;94.50;;;;;;10554188;27;20385;-63
2022/07/31 18:48:44;;;;;;;3.33;2.25;;;21.40;94.50;;;;;;10562200;27;20071;-64
2022/07/31 18:53:45;;;;;;;2.88;1.90;;;21.30;94.50;;;;;;10551258;27;20283;-63
2022/07/31 18:58:45;;;;;;;2.75;1.73;;;21.40;94.60;;;;;;10555813;27;20327;-63
2022/07/31 19:03:46;;;;;;;2.30;1.85;;;21.30;94.50;;;;;;10545064;27;20030;-61
2022/07/31 19:08:48;;;;;;;4.40;2.10;;;21.30;94.50;;;;;;10559836;27;20035;-62
2022/07/31 19:13:49;;;;;;;2.58;1.92;;;21.30;94.50;;;;;;10553037;27;20199;-59
2022/07/31 19:18:50;;;;;;;4.38;1.85;;;21.30;94.60;;;;;;10555737;27;20373;-59
2022/07/31 19:23:51;;;;;;;4.10;2.10;;;21.30;94.60;;;;;;10554497;27;20166;-63
2022/07/31 19:28:51;;;;;;;2.80;1.98;;;21.30;94.60;;;;;;10550871;27;20568;-63
2022/07/31 19:33:52;;;;;;;3.40;2.03;;;21.30;94.60;;;;;;10539055;27;20416;-63
2022/07/31 19:38:53;;;;;;;2.05;1.85;;;21.30;94.60;;;;;;10550037;27;20158;-60
2022/07/31 19:43:54;;;;;;;2.88;1.88;;;21.30;94.60;;;;;;10536213;27;20568;-63
2022/07/31 19:48:55;;;;;;;2.80;1.73;;;21.30;94.60;;;;;;10559384;27;20039;-60
2022/07/31 19:53:56;;;;;;;2.75;1.77;;;21.20;94.60;;;;;;10562039;27;20035;-64
2022/07/31 19:58:56;;;;;;;7.32;2.30;;;21.20;94.50;;;;;;10551458;27;20882;-64
2022/07/31 20:03:57;;;;;;;5.32;2.25;;;21.20;95.20;;;;;;10643858;27;20023;-63
2022/07/31 20:08:58;;;;;;;4.68;1.98;;;21.20;95.30;;;;;;10641096;27;20034;-62
2022/07/31 20:13:59;;;;;;;2.90;1.88;;;21.20;95.40;;;;;;10625986;27;20102;-63
2022/07/31 20:19:00;;;;;;;6.68;2.05;;;21.20;95.40;;;;;;10635599;27;20027;-62
2022/07/31 20:24:01;;;;;;;5.10;1.90;;;21.20;95.40;;;;;;10638905;27;20019;-62
2022/07/31 20:29:05;;;;;;;4.53;2.00;;;21.20;95.40;;;;;;10632103;27;20059;-63
2022/07/31 20:34:06;;;;;;;3.08;1.73;;;21.20;95.40;;;;;;10630635;27;20039;-61
2022/07/31 20:39:06;;;;;;;3.97;2.03;;;21.20;95.30;;;;;;10640054;27;20042;-63
2022/07/31 20:44:07;;;;;;;4.85;2.00;;;21.20;95.30;;;;;;10634715;27;20497;-62
2022/07/31 20:49:08;;;;;;;4.50;1.58;;;21.10;95.20;;;;;;10635572;27;20133;-62
2022/07/31 20:54:08;;;;;;;2.85;1.70;;;21.10;95.20;;;;;;10635172;27;20026;-62
2022/07/31 20:59:09;;;;;;;4.05;1.60;;;21.10;95.20;;;;;;10630861;27;20080;-63
2022/07/31 21:04:10;;;;;;;2.60;1.65;;;21.10;95.10;;;;;;10640785;27;20019;-63
2022/07/31 21:09:11;;;;;;;4.63;2.03;;;21.10;95.40;;;;;;10649133;27;20084;-61
2022/07/31 21:14:11;;;;;;;2.80;1.55;;;21.10;95.10;;;;;;10640261;27;20043;-61
2022/07/31 21:19:12;;;;;;;9.02;2.33;;;21.10;95.10;;;;;;10645453;27;20396;-62
2022/07/31 21:24:13;;;;;;;4.32;2.03;;;21.10;95.20;;;;;;10640503;27;20015;-61
2022/07/31 21:29:14;;;;;;;4.47;1.88;;;21.10;95.20;;;;;;10640579;27;20019;-62
2022/07/31 21:34:15;;;;;;;2.88;1.85;;;21.00;95.20;;;;;;10632586;27;20047;-61
2022/07/31 21:39:16;;;;;;;4.53;1.80;;;21.10;95.20;;;;;;10638364;27;20066;-62
2022/07/31 21:44:17;;;;;;;3.42;1.98;;;21.00;95.20;;;;;;10652038;27;20030;-61
2022/07/31 21:49:20;;;;;;;3.60;1.88;;;21.00;95.20;;;;;;10615308;27;20405;-62
2022/07/31 21:54:20;;;;;;;3.65;1.60;;;21.00;95.40;;;;;;10622590;27;20114;-62
2022/07/31 21:59:21;;;;;;;5.28;1.77;;;21.00;95.10;;;;;;10640951;27;20434;-61
2022/07/31 22:04:22;;;;;;;3.67;1.70;;;21.00;95.20;;;;;;10636281;27;20362;-61
2022/07/31 22:09:23;;;;;;;5.18;1.70;;;21.00;95.20;;;;;;10639407;27;20190;-61
2022/07/31 22:14:24;;;;;;;3.60;1.75;;;21.00;95.20;;;;;;10627838;27;20317;-61
2022/07/31 22:19:25;;;;;;;3.85;1.70;;;21.00;95.20;;;;;;10645155;27;20368;-61
2022/07/31 22:24:26;;;;;;;3.97;1.90;;;21.00;95.20;;;;;;10616915;27;20031;-61
2022/07/31 22:29:27;;;;;;;3.25;1.17;;;21.00;95.30;;;;;;10614707;27;20513;-61
2022/07/31 22:34:28;;;;;;;4.32;1.58;;;21.00;95.20;;;;;;10629639;27;20073;-61
2022/07/31 22:39:29;;;;;;;1.55;1.15;;;21.00;95.20;;;;;;10634068;27;20531;-61
2022/07/31 22:44:30;;;;;;;2.08;1.40;;;21.00;95.10;;;;;;10636587;27;20031;-60
2022/07/31 22:49:33;;;;;;;3.80;1.38;;;21.00;95.20;;;;;;10631070;27;20046;-61
2022/07/31 22:54:33;;;;;;;3.83;1.65;;;21.00;95.20;;;;;;10634380;27;20046;-61
2022/07/31 22:59:34;;;;;;;3.17;1.50;;;21.00;95.20;;;;;;10637217;27;20034;-61
2022/07/31 23:04:35;;;;;;;2.95;1.40;;;21.00;95.20;;;;;;10649249;27;20018;-60
2022/07/31 23:09:35;;;;;;;3.30;1.42;;;21.00;95.20;;;;;;10625186;27;20165;-61
2022/07/31 23:14:36;;;;;;;5.32;1.48;;;21.00;95.10;;;;;;10640080;27;20477;-61
2022/07/31 23:19:37;;;;;;;1.70;1.25;;;21.00;95.10;;;;;;10626946;27;20042;-61
2022/07/31 23:24:37;;;;;;;3.97;1.50;;;21.00;95.10;;;;;;10630932;27;20060;-60
2022/07/31 23:29:38;;;;;;;3.33;1.40;;;21.00;95.10;;;;;;10635139;27;20022;-60
2022/07/31 23:34:39;;;;;;;3.97;1.65;;;21.00;95.20;;;;;;10644524;27;20042;-61
2022/07/31 23:39:40;;;;;;;3.58;1.40;;;21.00;95.20;;;;;;10632531;27;20050;-61
2022/07/31 23:44:41;;;;;;;3.38;1.20;;;21.00;95.30;;;;;;10642492;27;20143;-60
2022/07/31 23:49:41;;;;;;;3.17;1.50;;;21.00;95.30;;;;;;10637223;27;20023;-61
2022/07/31 23:54:42;;;;;;;3.83;1.45;;;20.90;95.40;;;;;;10643598;27;20121;-61
2022/07/31 23:59:43;;;;;;;2.67;1.33;;;21.00;95.40;;;;;;10634370;27;20019;-61
